Time;durP1;ratioP1;P1;durP2;ratioP2;P2;SDS_P1;SDS_P2;PMS_P1;PMS_P2;Temp;Humidity;BMP_temperature;BMP_pressure;BME280_temperature;BME280_humidity;BME280_pressure;Samples;Min_cycle;Max_cycle;Signal;HPM_P1;HPM_P2
2021/06/30 00:01:14;;;;;;;1.05;1.00;;;15.40;99.90;;;;;;5053887;28;20475;-65
2021/06/30 00:03:39;;;;;;;2.25;1.20;;;15.40;99.90;;;;;;5045540;28;20025;-65
2021/06/30 00:06:05;;;;;;;1.88;1.27;;;15.40;99.90;;;;;;5052833;28;20040;-65
2021/06/30 00:08:32;;;;;;;0.98;0.98;;;15.40;99.90;;;;;;5052742;28;20060;-65
2021/06/30 00:10:58;;;;;;;1.30;1.20;;;15.40;99.90;;;;;;5052656;28;20033;-65
2021/06/30 00:13:24;;;;;;;1.40;1.20;;;15.50;99.90;;;;;;5052548;28;20025;-65
2021/06/30 00:15:51;;;;;;;5.15;1.20;;;15.50;99.90;;;;;;5052717;28;20025;-65
2021/06/30 00:18:19;;;;;;;1.85;1.23;;;15.60;99.90;;;;;;5053021;28;20028;-65
2021/06/30 00:20:44;;;;;;;3.10;1.00;;;15.60;99.90;;;;;;5052240;28;20039;-65
2021/06/30 00:23:10;;;;;;;0.90;0.90;;;15.70;99.90;;;;;;5052860;28;20033;-65
2021/06/30 00:25:36;;;;;;;1.30;0.90;;;15.70;99.90;;;;;;5052139;28;20449;-65
2021/06/30 00:28:02;;;;;;;0.75;0.70;;;15.70;99.90;;;;;;5052941;28;20033;-65
2021/06/30 00:30:28;;;;;;;2.30;1.00;;;15.90;99.90;;;;;;5052258;28;20474;-65
2021/06/30 00:32:54;;;;;;;1.00;1.00;;;15.90;99.90;;;;;;5052968;28;20071;-65
2021/06/30 00:35:19;;;;;;;1.20;0.90;;;16.00;99.90;;;;;;5052374;28;20079;-65
2021/06/30 00:37:45;;;;;;;1.10;1.00;;;16.00;99.90;;;;;;5051976;28;20039;-65
2021/06/30 00:40:12;;;;;;;3.35;1.10;;;16.00;99.90;;;;;;5052503;28;20467;-65
2021/06/30 00:42:38;;;;;;;1.10;0.93;;;16.00;99.90;;;;;;5052053;28;20517;-65
2021/06/30 00:45:08;;;;;;;3.53;0.70;;;16.10;99.90;;;;;;5052039;28;20033;-65
2021/06/30 00:47:34;;;;;;;;;;;16.10;99.90;;;;;;5051372;28;20031;-65
2021/06/30 00:50:00;;;;;;;2.72;0.63;;;16.10;99.90;;;;;;5052201;28;19912;-65
2021/06/30 00:52:26;;;;;;;1.00;0.70;;;16.20;99.90;;;;;;5051675;28;20075;-65
2021/06/30 00:54:51;;;;;;;0.52;0.50;;;16.20;99.90;;;;;;5052059;28;20048;-65
2021/06/30 00:57:18;;;;;;;1.77;0.80;;;16.20;99.90;;;;;;5052013;28;20116;-65
2021/06/30 00:59:45;;;;;;;1.05;0.50;;;16.20;99.90;;;;;;5051449;28;20033;-65
2021/06/30 01:02:12;;;;;;;0.98;0.70;;;16.20;99.90;;;;;;5052509;28;20045;-65
2021/06/30 01:04:37;;;;;;;0.68;0.68;;;16.20;99.90;;;;;;5051561;28;20021;-65
2021/06/30 01:07:03;;;;;;;0.95;0.60;;;16.20;99.90;;;;;;5051247;28;20025;-65
2021/06/30 01:09:30;;;;;;;1.83;0.90;;;16.20;99.90;;;;;;5050920;28;20112;-65
2021/06/30 01:11:58;;;;;;;1.65;0.70;;;16.20;99.90;;;;;;5051829;28;20033;-65
2021/06/30 01:14:32;;;;;;;2.22;0.85;;;16.20;99.90;;;;;;5051492;28;20056;-65
2021/06/30 01:16:59;;;;;;;0.82;0.77;;;16.10;99.90;;;;;;5051920;28;20055;-65
2021/06/30 01:19:27;;;;;;;1.38;0.63;;;16.10;99.90;;;;;;5050945;28;20025;-65
2021/06/30 01:21:53;;;;;;;0.95;0.63;;;16.10;99.90;;;;;;5051934;28;20040;-65
2021/06/30 01:24:19;;;;;;;0.50;0.50;;;16.00;99.90;;;;;;5052040;28;20033;-65
2021/06/30 01:26:46;;;;;;;1.15;0.80;;;16.00;99.90;;;;;;5049320;28;20045;-66
2021/06/30 01:29:12;;;;;;;3.30;0.70;;;16.00;99.90;;;;;;5051499;28;20419;-65
2021/06/30 01:31:37;;;;;;;1.48;0.75;;;16.00;99.90;;;;;;5050896;28;20044;-65
2021/06/30 01:34:03;;;;;;;3.03;0.68;;;16.00;99.90;;;;;;5051444;28;20099;-65
2021/06/30 01:36:29;;;;;;;2.72;0.70;;;16.00;99.90;;;;;;5050928;28;20359;-65
2021/06/30 01:38:55;;;;;;;4.55;0.82;;;16.00;99.90;;;;;;5051435;28;20150;-65
2021/06/30 01:41:21;;;;;;;2.53;1.00;;;16.10;99.90;;;;;;5051275;28;20075;-65
2021/06/30 01:43:47;;;;;;;6.95;0.80;;;16.00;99.90;;;;;;5050706;28;20031;-65
2021/06/30 01:46:13;;;;;;;1.70;0.70;;;16.00;99.90;;;;;;5051413;28;20029;-65
2021/06/30 01:48:46;;;;;;;0.50;0.40;;;16.00;99.90;;;;;;5050414;28;20386;-65
2021/06/30 01:51:11;;;;;;;1.17;0.50;;;15.90;99.90;;;;;;5051480;28;20124;-65
2021/06/30 01:53:37;;;;;;;1.67;0.50;;;15.80;99.90;;;;;;5050050;28;20132;-65
2021/06/30 01:56:03;;;;;;;1.13;0.55;;;15.70;99.90;;;;;;5051596;28;20175;-65
2021/06/30 01:58:28;;;;;;;2.58;0.60;;;15.70;99.90;;;;;;5050133;28;20117;-65
2021/06/30 02:00:55;;;;;;;3.67;0.70;;;15.60;99.90;;;;;;5051304;28;20112;-65
2021/06/30 02:03:21;;;;;;;3.03;0.77;;;15.50;99.90;;;;;;5051334;28;20024;-65
2021/06/30 02:05:47;;;;;;;1.08;0.45;;;15.40;99.90;;;;;;5049921;28;20279;-65
2021/06/30 02:08:13;;;;;;;8.65;1.02;;;15.20;99.90;;;;;;5049838;28;20509;-65
2021/06/30 02:10:39;;;;;;;0.70;0.40;;;15.10;99.90;;;;;;5050424;28;20036;-65
2021/06/30 02:13:05;;;;;;;2.08;0.60;;;14.90;99.90;;;;;;5050679;28;20398;-65
2021/06/30 02:15:33;;;;;;;1.23;0.50;;;14.70;99.90;;;;;;5050623;28;20043;-65
2021/06/30 02:18:01;;;;;;;2.47;0.65;;;14.60;99.90;;;;;;5051396;28;20478;-65
2021/06/30 02:20:27;;;;;;;6.35;0.60;;;14.40;99.90;;;;;;5054578;28;20119;-65
2021/06/30 02:22:54;;;;;;;0.85;0.52;;;14.30;99.90;;;;;;5054983;28;20037;-65
2021/06/30 02:25:23;;;;;;;2.13;0.22;;;14.20;99.90;;;;;;5054783;28;20043;-65
2021/06/30 02:27:49;;;;;;;0.90;0.55;;;14.20;99.90;;;;;;5054436;28;20077;-66
2021/06/30 02:30:19;;;;;;;1.92;0.30;;;14.10;99.90;;;;;;5054734;28;20040;-65
2021/06/30 02:32:45;;;;;;;1.35;0.30;;;14.10;99.90;;;;;;5054201;28;20037;-65
2021/06/30 02:35:14;;;;;;;0.88;0.30;;;14.00;99.90;;;;;;5054603;28;20033;-65
2021/06/30 02:37:40;;;;;;;1.30;0.50;;;14.00;99.90;;;;;;5053825;28;20028;-65
2021/06/30 02:40:11;;;;;;;0.38;0.32;;;14.00;99.90;;;;;;5054881;28;20033;-65
2021/06/30 02:42:36;;;;;;;;;;;13.90;99.90;;;;;;5046481;28;20025;-66
2021/06/30 02:45:05;;;;;;;0.75;0.35;;;13.90;99.90;;;;;;5054934;28;19915;-65
2021/06/30 02:47:31;;;;;;;1.35;0.28;;;13.90;99.90;;;;;;5054146;28;20107;-65
2021/06/30 02:49:56;;;;;;;1.98;0.40;;;13.90;99.90;;;;;;5054171;28;20067;-65
2021/06/30 02:52:22;;;;;;;0.50;0.40;;;13.90;99.90;;;;;;5054542;28;20127;-65
2021/06/30 02:54:47;;;;;;;0.20;0.20;;;13.90;99.90;;;;;;5053575;28;20681;-65
2021/06/30 02:57:13;;;;;;;1.13;0.28;;;13.90;99.90;;;;;;5054202;28;20124;-65
2021/06/30 02:59:39;;;;;;;0.20;0.17;;;13.80;99.90;;;;;;5053793;28;20405;-65
2021/06/30 03:02:05;;;;;;;0.28;0.20;;;13.80;99.90;;;;;;5052784;28;20033;-65
2021/06/30 03:04:30;;;;;;;0.47;0.20;;;13.80;99.90;;;;;;5053326;28;20025;-65
2021/06/30 03:06:56;;;;;;;0.35;0.35;;;13.80;99.90;;;;;;5054399;28;20500;-65
2021/06/30 03:09:22;;;;;;;0.47;0.15;;;13.80;99.90;;;;;;5053809;28;20035;-64
2021/06/30 03:11:50;;;;;;;0.17;0.10;;;13.80;99.90;;;;;;5053557;28;20639;-65
2021/06/30 03:14:16;;;;;;;0.10;0.10;;;13.80;99.90;;;;;;5052473;28;20040;-65
2021/06/30 03:16:42;;;;;;;0.20;0.20;;;13.80;99.90;;;;;;5053490;28;20036;-65
2021/06/30 03:19:08;;;;;;;2.03;0.30;;;13.70;99.90;;;;;;5053908;28;20049;-65
2021/06/30 03:21:34;;;;;;;1.50;0.30;;;13.80;99.90;;;;;;5053095;28;20033;-65
2021/06/30 03:24:00;;;;;;;0.95;0.30;;;13.80;99.90;;;;;;5053584;28;20029;-65
2021/06/30 03:26:26;;;;;;;0.73;0.30;;;13.80;99.90;;;;;;5053140;28;20045;-65
2021/06/30 03:28:51;;;;;;;0.20;0.20;;;13.80;99.90;;;;;;5053053;28;20041;-65
2021/06/30 03:31:17;;;;;;;0.20;0.20;;;13.80;99.90;;;;;;5051702;28;20032;-65
2021/06/30 03:33:43;;;;;;;0.40;0.30;;;13.80;99.90;;;;;;5052737;28;20032;-65
2021/06/30 03:36:09;;;;;;;0.95;0.30;;;13.70;99.90;;;;;;5053914;28;20363;-65
2021/06/30 03:38:35;;;;;;;0.52;0.52;;;13.80;99.90;;;;;;5053197;28;20079;-65
2021/06/30 03:41:02;;;;;;;1.67;0.32;;;13.80;99.90;;;;;;5053497;28;20036;-65
2021/06/30 03:43:28;;;;;;;0.90;0.20;;;13.80;99.90;;;;;;5053361;28;20090;-65
2021/06/30 03:45:54;;;;;;;0.25;0.25;;;13.80;99.90;;;;;;5053667;28;20507;-65
2021/06/30 03:48:20;;;;;;;0.55;0.20;;;13.90;99.90;;;;;;5053793;28;20033;-65
2021/06/30 03:50:45;;;;;;;0.20;0.20;;;13.90;99.90;;;;;;5052378;28;20036;-65
2021/06/30 03:53:11;;;;;;;0.85;0.30;;;13.90;99.90;;;;;;5053408;28;20025;-65
2021/06/30 03:55:36;;;;;;;0.68;0.40;;;13.90;99.90;;;;;;5052382;28;20409;-65
2021/06/30 03:58:02;;;;;;;1.38;0.57;;;14.00;99.90;;;;;;5052848;28;20036;-65
2021/06/30 04:00:28;;;;;;;1.23;0.25;;;14.00;99.90;;;;;;5053013;28;20041;-65
2021/06/30 04:02:54;;;;;;;0.65;0.30;;;14.00;99.90;;;;;;5052727;28;20053;-65
2021/06/30 04:05:24;;;;;;;0.43;0.43;;;14.00;99.90;;;;;;5053330;28;20049;-65
2021/06/30 04:07:50;;;;;;;1.38;0.20;;;14.00;99.90;;;;;;5043811;28;20202;-65
2021/06/30 04:10:17;;;;;;;0.85;0.20;;;14.00;99.90;;;;;;5053100;28;20033;-65
2021/06/30 04:12:43;;;;;;;0.73;0.20;;;14.00;99.90;;;;;;5052460;28;20052;-65
2021/06/30 04:15:09;;;;;;;1.60;0.40;;;14.00;99.90;;;;;;5052957;28;20056;-65
2021/06/30 04:17:35;;;;;;;0.65;0.30;;;14.00;99.90;;;;;;5052019;28;20168;-65
2021/06/30 04:20:05;;;;;;;0.40;0.20;;;14.00;99.90;;;;;;5052966;28;20466;-65
2021/06/30 04:22:31;;;;;;;0.20;0.10;;;14.00;99.90;;;;;;5052750;28;20102;-65
2021/06/30 04:24:56;;;;;;;1.25;0.20;;;14.10;99.90;;;;;;5052223;28;20072;-65
2021/06/30 04:27:22;;;;;;;0.10;0.10;;;14.20;99.90;;;;;;5052837;28;20112;-65
2021/06/30 04:29:48;;;;;;;2.20;0.30;;;14.10;99.90;;;;;;5051814;28;20025;-65
2021/06/30 04:32:13;;;;;;;1.02;0.20;;;14.20;99.90;;;;;;5052990;28;20112;-65
2021/06/30 04:34:40;;;;;;;1.17;0.30;;;14.20;99.90;;;;;;5051552;28;20025;-65
2021/06/30 04:37:05;;;;;;;0.35;0.30;;;14.30;99.90;;;;;;5052765;28;20335;-65
2021/06/30 04:39:31;;;;;;;3.50;0.38;;;14.30;99.90;;;;;;5052213;28;20027;-66
2021/06/30 04:41:56;;;;;;;0.50;0.20;;;14.30;99.90;;;;;;5051931;28;20530;-65
2021/06/30 04:44:22;;;;;;;0.32;0.20;;;14.30;99.90;;;;;;5052093;28;20386;-66
2021/06/30 04:46:49;;;;;;;0.75;0.40;;;14.30;99.90;;;;;;5051495;28;20464;-65
2021/06/30 04:49:15;;;;;;;1.63;0.30;;;14.30;99.90;;;;;;5052004;28;20466;-65
2021/06/30 04:51:42;;;;;;;1.45;0.40;;;14.30;99.90;;;;;;5051665;28;20123;-65
2021/06/30 04:54:08;;;;;;;1.75;0.30;;;14.30;99.90;;;;;;5051855;28;20051;-65
2021/06/30 04:56:39;;;;;;;0.77;0.28;;;14.40;99.90;;;;;;5051536;28;20112;-67
2021/06/30 04:59:06;;;;;;;0.30;0.30;;;14.50;99.90;;;;;;5051926;28;20029;-66
2021/06/30 05:01:32;;;;;;;2.17;0.40;;;14.50;99.90;;;;;;5052175;28;20032;-66
2021/06/30 05:03:58;;;;;;;1.85;0.30;;;14.50;99.90;;;;;;5051373;28;20029;-66
2021/06/30 05:06:23;;;;;;;0.90;0.30;;;14.60;99.90;;;;;;5052341;28;20021;-66
2021/06/30 05:08:49;;;;;;;0.30;0.28;;;14.70;99.90;;;;;;5049346;28;20028;-66
2021/06/30 05:11:15;;;;;;;0.43;0.40;;;14.70;99.90;;;;;;5051730;28;20040;-66
2021/06/30 05:13:40;;;;;;;0.73;0.30;;;14.80;99.90;;;;;;5051413;28;20024;-75
2021/06/30 05:16:06;;;;;;;1.27;0.20;;;14.80;99.90;;;;;;5051492;28;20125;-74
2021/06/30 05:18:32;;;;;;;0.95;0.60;;;14.90;99.90;;;;;;5052134;28;20029;-76
2021/06/30 05:20:58;;;;;;;0.43;0.30;;;14.90;99.90;;;;;;5051745;28;20068;-79
2021/06/30 05:23:24;;;;;;;0.30;0.30;;;15.00;99.90;;;;;;5051556;28;20132;-78
2021/06/30 05:25:50;;;;;;;0.88;0.28;;;15.00;99.90;;;;;;5050899;28;20039;-77
2021/06/30 05:28:16;;;;;;;0.17;0.17;;;15.10;99.90;;;;;;5051081;28;20063;-78
2021/06/30 05:30:42;;;;;;;0.95;0.40;;;15.20;99.90;;;;;;5051886;28;20064;-77
2021/06/30 05:33:07;;;;;;;0.32;0.30;;;15.30;99.90;;;;;;5051697;28;20029;-77
2021/06/30 05:35:33;;;;;;;0.90;0.50;;;15.30;99.90;;;;;;5051531;28;20098;-76
2021/06/30 05:37:59;;;;;;;0.50;0.30;;;15.40;99.90;;;;;;5050009;28;20501;-84
2021/06/30 05:40:24;;;;;;;0.70;0.40;;;15.40;99.90;;;;;;5053806;28;20027;-81
2021/06/30 05:42:51;;;;;;;1.60;0.40;;;15.50;99.90;;;;;;5052733;28;20036;-79
2021/06/30 05:45:17;;;;;;;1.10;0.43;;;15.60;99.90;;;;;;5050856;28;20056;-75
2021/06/30 05:47:46;;;;;;;0.30;0.30;;;15.60;99.90;;;;;;5049558;28;20021;-86
2021/06/30 05:50:13;;;;;;;3.55;0.43;;;15.60;99.90;;;;;;5052356;28;20033;-79
2021/06/30 05:52:39;;;;;;;0.77;0.57;;;15.60;99.90;;;;;;5050698;28;20033;-78
2021/06/30 05:55:07;;;;;;;0.30;0.30;;;15.60;99.90;;;;;;5051125;28;20079;-77
2021/06/30 05:57:32;;;;;;;0.50;0.47;;;15.60;99.90;;;;;;5050176;28;20033;-76
2021/06/30 05:59:58;;;;;;;2.97;0.35;;;15.70;99.90;;;;;;5050092;28;20036;-76
2021/06/30 06:02:24;;;;;;;2.00;0.57;;;15.70;99.90;;;;;;5051217;28;20115;-76
2021/06/30 06:04:50;;;;;;;0.50;0.40;;;15.80;99.90;;;;;;5049435;28;20028;-74
2021/06/30 06:07:16;;;;;;;1.35;0.45;;;15.90;99.90;;;;;;5049831;28;20025;-73
2021/06/30 06:09:41;;;;;;;2.70;0.40;;;16.00;99.90;;;;;;5049830;28;20036;-74
2021/06/30 06:12:07;;;;;;;3.83;0.57;;;16.10;99.90;;;;;;5050918;28;20032;-74
2021/06/30 06:14:33;;;;;;;2.65;0.40;;;16.30;99.90;;;;;;5050160;28;20389;-74
2021/06/30 06:16:59;;;;;;;0.50;0.30;;;16.30;99.90;;;;;;5050412;28;20401;-74
2021/06/30 06:19:25;;;;;;;1.45;0.32;;;16.50;99.90;;;;;;5050558;28;20029;-74
2021/06/30 06:21:51;;;;;;;1.95;0.40;;;16.60;99.90;;;;;;5050234;28;20524;-74
2021/06/30 06:24:17;;;;;;;1.17;0.30;;;16.70;99.90;;;;;;5050547;28;20037;-74
2021/06/30 06:26:44;;;;;;;0.50;0.50;;;16.70;99.90;;;;;;5049030;28;20533;-74
2021/06/30 06:29:10;;;;;;;4.07;0.50;;;16.80;99.90;;;;;;5051352;28;20030;-73
2021/06/30 06:31:36;;;;;;;4.35;0.60;;;16.80;99.90;;;;;;5051056;28;20037;-74
2021/06/30 06:34:01;;;;;;;1.35;0.40;;;16.90;99.90;;;;;;5051657;28;20036;-73
2021/06/30 06:36:27;;;;;;;0.73;0.40;;;16.90;99.90;;;;;;5051138;28;20036;-74
2021/06/30 06:38:53;;;;;;;2.45;0.40;;;17.00;99.90;;;;;;5050964;28;20757;-75
2021/06/30 06:41:19;;;;;;;1.17;0.40;;;17.10;99.90;;;;;;5050662;28;20029;-74
2021/06/30 06:43:46;;;;;;;1.70;0.50;;;17.10;99.90;;;;;;5050199;28;20033;-74
2021/06/30 06:46:12;;;;;;;0.35;0.22;;;17.10;99.90;;;;;;5049376;28;20045;-74
2021/06/30 06:48:38;;;;;;;0.60;0.50;;;17.20;99.60;;;;;;5050475;28;20087;-74
2021/06/30 06:51:04;;;;;;;2.03;0.30;;;17.30;98.90;;;;;;5051115;28;20037;-73
2021/06/30 06:53:30;;;;;;;2.92;0.40;;;17.40;98.80;;;;;;5050762;28;20103;-73
2021/06/30 06:56:00;;;;;;;1.05;0.30;;;17.50;97.40;;;;;;5049910;28;20475;-74
2021/06/30 06:58:25;;;;;;;0.30;0.30;;;17.60;97.20;;;;;;5050811;28;20021;-73
2021/06/30 07:00:51;;;;;;;1.27;0.30;;;17.60;95.80;;;;;;5049613;28;20043;-73
2021/06/30 07:03:16;;;;;;;1.33;0.50;;;17.60;95.70;;;;;;5050333;28;20033;-72
2021/06/30 07:05:42;;;;;;;0.68;0.57;;;17.60;95.20;;;;;;5051549;28;20473;-74
2021/06/30 07:08:08;;;;;;;1.00;0.63;;;17.60;95.10;;;;;;5054134;28;20025;-74
2021/06/30 07:10:34;;;;;;;2.22;0.40;;;17.70;95.80;;;;;;5054168;28;20083;-74
2021/06/30 07:12:59;;;;;;;0.98;0.50;;;17.90;95.40;;;;;;5053477;28;20041;-75
2021/06/30 07:15:25;;;;;;;1.23;0.50;;;18.20;93.90;;;;;;5054529;28;20025;-74
2021/06/30 07:17:51;;;;;;;2.55;0.50;;;18.30;93.40;;;;;;5052539;28;20493;-76
2021/06/30 07:20:16;;;;;;;0.82;0.65;;;18.40;91.80;;;;;;5053925;28;20430;-76
2021/06/30 07:22:42;;;;;;;1.05;0.30;;;18.40;91.90;;;;;;5051401;28;20029;-76
2021/06/30 07:25:08;;;;;;;0.40;0.40;;;18.70;91.30;;;;;;5054092;28;20067;-67
2021/06/30 07:27:34;;;;;;;2.50;0.40;;;18.90;91.70;;;;;;5049911;28;20238;-67
2021/06/30 07:30:00;;;;;;;0.17;0.17;;;19.20;90.00;;;;;;5043048;28;20120;-66
2021/06/30 07:32:25;;;;;;;2.60;0.50;;;19.40;85.60;;;;;;5052905;28;20036;-67
2021/06/30 07:34:51;;;;;;;0.75;0.30;;;19.60;83.00;;;;;;5050776;28;20025;-67
2021/06/30 07:37:17;;;;;;;1.30;0.22;;;19.60;81.30;;;;;;5054257;28;20036;-67
2021/06/30 07:39:42;;;;;;;4.45;0.30;;;19.70;79.80;;;;;;5053501;28;20021;-66
2021/06/30 07:42:08;;;;;;;1.35;0.38;;;19.70;76.30;;;;;;5052183;28;20025;-66
2021/06/30 07:44:34;;;;;;;2.13;0.38;;;19.80;78.90;;;;;;5050226;28;20475;-66
2021/06/30 07:46:59;;;;;;;0.63;0.28;;;20.00;77.20;;;;;;5052171;28;20401;-66
2021/06/30 07:49:25;;;;;;;0.93;0.30;;;20.20;75.00;;;;;;5053201;28;20031;-67
2021/06/30 07:51:51;;;;;;;0.30;0.30;;;20.30;74.20;;;;;;5051959;28;20037;-66
2021/06/30 07:54:17;;;;;;;0.70;0.30;;;20.30;74.40;;;;;;5051411;28;20060;-66
2021/06/30 07:56:43;;;;;;;0.30;0.25;;;20.20;75.00;;;;;;5050329;28;20029;-66
2021/06/30 07:59:13;;;;;;;0.63;0.20;;;20.40;71.90;;;;;;5052050;28;20087;-66
2021/06/30 08:01:40;;;;;;;1.50;0.20;;;20.50;72.50;;;;;;5050908;28;20470;-65
2021/06/30 08:04:07;;;;;;;1.27;0.25;;;20.50;72.10;;;;;;5052896;28;20029;-66
2021/06/30 08:06:33;;;;;;;0.60;0.20;;;20.50;72.30;;;;;;5052937;28;20049;-66
2021/06/30 08:08:59;;;;;;;0.20;0.20;;;20.40;72.70;;;;;;5051390;28;20470;-67
2021/06/30 08:11:25;;;;;;;0.70;0.30;;;20.40;71.50;;;;;;5052613;28;20036;-67
2021/06/30 08:13:51;;;;;;;0.45;0.20;;;20.40;72.80;;;;;;5051370;28;20070;-66
2021/06/30 08:16:18;;;;;;;0.93;0.30;;;20.40;72.70;;;;;;5052625;28;20029;-67
2021/06/30 08:18:44;;;;;;;0.10;0.10;;;20.30;72.10;;;;;;5051842;28;20029;-66
2021/06/30 08:21:10;;;;;;;0.25;0.10;;;20.20;72.70;;;;;;5052418;28;20045;-65
2021/06/30 08:23:36;;;;;;;0.43;0.20;;;20.00;73.40;;;;;;5051866;28;20071;-65
2021/06/30 08:26:01;;;;;;;0.40;0.20;;;19.80;74.40;;;;;;5052621;28;20037;-65
2021/06/30 08:28:28;;;;;;;0.57;0.13;;;19.70;75.10;;;;;;5052006;28;20025;-66
2021/06/30 08:30:54;;;;;;;0.10;0.10;;;19.60;75.40;;;;;;5048623;28;20035;-65
2021/06/30 08:33:19;;;;;;;2.67;0.50;;;19.60;76.20;;;;;;5053398;28;20127;-65
2021/06/30 08:35:45;;;;;;;1.20;0.10;;;19.70;75.70;;;;;;5052960;28;20104;-65
2021/06/30 08:38:11;;;;;;;1.52;0.30;;;19.80;75.70;;;;;;5053355;28;20025;-65
2021/06/30 08:40:39;;;;;;;0.98;0.50;;;19.90;75.90;;;;;;5053403;28;20036;-65
2021/06/30 08:43:07;;;;;;;0.17;0.17;;;20.10;75.70;;;;;;5052326;28;20040;-70
2021/06/30 08:45:32;;;;;;;0.47;0.20;;;20.10;75.40;;;;;;5053434;28;20168;-66
2021/06/30 08:48:00;;;;;;;5.40;0.65;;;20.20;75.40;;;;;;5051946;28;20114;-66
2021/06/30 08:50:27;;;;;;;0.52;0.20;;;20.20;75.70;;;;;;5052892;28;20106;-67
2021/06/30 08:52:54;;;;;;;0.20;0.20;;;20.20;74.90;;;;;;5052146;28;20029;-66
2021/06/30 08:55:21;;;;;;;1.90;0.30;;;20.20;74.60;;;;;;5052788;28;20504;-67
2021/06/30 08:57:48;;;;;;;0.50;0.20;;;20.10;74.60;;;;;;5051794;28;20057;-66
2021/06/30 09:00:15;;;;;;;0.47;0.20;;;20.00;73.50;;;;;;5052365;28;20035;-66
2021/06/30 09:02:47;;;;;;;0.52;0.20;;;19.90;74.70;;;;;;5051400;28;20040;-66
2021/06/30 09:07:51;;;;;;;1.52;0.20;;;19.80;75.50;;;;;;5051517;28;20484;-66
2021/06/30 09:10:37;;;;;;;0.22;0.20;;;19.60;78.70;;;;;;5046610;28;20033;-67
2021/06/30 09:13:06;;;;;;;1.23;0.30;;;19.10;83.00;;;;;;5050721;28;20064;-67
2021/06/30 09:15:34;;;;;;;0.73;0.40;;;18.70;85.80;;;;;;5052234;28;20033;-67
2021/06/30 09:18:18;;;;;;;0.80;0.40;;;18.50;86.50;;;;;;5050355;28;20029;-67
2021/06/30 09:20:45;;;;;;;2.55;0.20;;;18.50;86.00;;;;;;5050386;28;20061;-66
2021/06/30 09:23:11;;;;;;;0.10;0.10;;;18.60;85.90;;;;;;5051406;28;20090;-66
2021/06/30 09:25:43;;;;;;;2.63;0.30;;;18.80;82.50;;;;;;5052247;28;20039;-66
2021/06/30 09:28:25;;;;;;;2.28;0.45;;;19.00;83.50;;;;;;5050030;28;20029;-66
2021/06/30 09:30:57;;;;;;;0.10;0.10;;;19.30;79.40;;;;;;5050974;28;20048;-66
2021/06/30 09:33:23;;;;;;;4.35;0.38;;;19.40;78.40;;;;;;5051757;28;20029;-66
2021/06/30 09:36:00;;;;;;;1.75;0.30;;;19.50;77.00;;;;;;5051432;28;20032;-65
2021/06/30 09:38:33;;;;;;;13.65;4.40;;;19.60;75.40;;;;;;5052001;28;20017;-68
2021/06/30 09:41:00;;;;;;;1.50;0.28;;;19.80;75.40;;;;;;5051692;28;20039;-68
2021/06/30 09:43:32;;;;;;;0.20;0.20;;;19.90;74.40;;;;;;5051942;28;20025;-69
2021/06/30 09:46:01;;;;;;;0.20;0.20;;;20.00;73.80;;;;;;5051596;28;20056;-68
2021/06/30 09:48:30;;;;;;;1.20;0.30;;;20.10;72.40;;;;;;5051948;28;20470;-69
2021/06/30 09:50:56;;;;;;;2.17;0.30;;;20.20;72.20;;;;;;5051292;28;20664;-69
2021/06/30 09:53:40;;;;;;;4.22;1.70;;;20.60;72.40;;;;;;5051839;28;20039;-68
2021/06/30 09:56:10;;;;;;;1.75;0.20;;;21.00;69.50;;;;;;5051646;28;20029;-69
2021/06/30 09:58:35;;;;;;;2.83;0.98;;;21.00;68.20;;;;;;5052932;28;20600;-73
2021/06/30 10:01:19;;;;;;;0.25;0.25;;;20.50;75.60;;;;;;5052086;28;20112;-68
2021/06/30 10:03:46;;;;;;;0.25;0.10;;;19.70;78.30;;;;;;5051485;28;20021;-66
2021/06/30 10:06:28;;;;;;;0.50;0.30;;;19.00;82.90;;;;;;5052123;28;20025;-67
2021/06/30 10:08:55;;;;;;;1.33;0.35;;;18.30;89.40;;;;;;5051173;28;20021;-67
2021/06/30 10:11:21;;;;;;;0.20;0.20;;;18.00;92.20;;;;;;5051855;28;20033;-67
2021/06/30 10:13:48;;;;;;;0.82;0.35;;;18.00;95.50;;;;;;5051109;28;20040;-67
2021/06/30 10:16:18;;;;;;;0.73;0.50;;;18.30;94.10;;;;;;5051941;28;20028;-67
2021/06/30 10:18:45;;;;;;;3.83;0.40;;;18.70;92.20;;;;;;5051645;28;20021;-66
2021/06/30 10:21:11;;;;;;;1.20;0.30;;;19.10;90.10;;;;;;5051764;28;20033;-67
2021/06/30 10:23:38;;;;;;;0.30;0.28;;;19.50;87.10;;;;;;5051326;28;20029;-66
2021/06/30 10:26:04;;;;;;;0.10;0.10;;;19.70;83.70;;;;;;5051301;28;20338;-66
2021/06/30 10:28:31;;;;;;;0.70;0.20;;;20.00;79.90;;;;;;5051831;28;20529;-66
2021/06/30 10:30:58;;;;;;;0.88;0.20;;;20.30;78.40;;;;;;5050981;28;20056;-66
2021/06/30 10:33:32;;;;;;;0.93;0.30;;;20.50;76.90;;;;;;5050513;28;20040;-66
2021/06/30 10:35:58;;;;;;;0.20;0.20;;;20.60;76.80;;;;;;5051030;28;20032;-66
2021/06/30 10:38:53;;;;;;;2.05;0.50;;;20.70;70.10;;;;;;5051790;28;20103;-67
2021/06/30 10:41:51;;;;;;;0.70;0.40;;;20.80;67.70;;;;;;5055661;28;20044;-67
2021/06/30 10:44:19;;;;;;;1.27;0.47;;;20.80;67.90;;;;;;5055568;28;20036;-66
2021/06/30 10:46:45;;;;;;;0.13;0.13;;;20.60;68.50;;;;;;5055099;28;20052;-66
2021/06/30 10:49:14;;;;;;;1.95;0.20;;;20.40;68.60;;;;;;5055434;28;20075;-66
2021/06/30 10:51:41;;;;;;;1.23;0.30;;;20.30;68.40;;;;;;5055556;28;20035;-66
2021/06/30 10:54:31;;;;;;;0.30;0.30;;;20.60;69.60;;;;;;5053164;28;20437;-66
2021/06/30 10:57:26;;;;;;;0.10;0.10;;;21.00;66.40;;;;;;5054918;28;20036;-66
2021/06/30 11:00:02;;;;;;;2.13;0.30;;;21.20;64.80;;;;;;5053094;28;20029;-67
2021/06/30 11:02:31;;;;;;;0.52;0.30;;;21.10;64.80;;;;;;5055733;28;20041;-66
2021/06/30 11:05:12;;;;;;;0.73;0.40;;;20.90;65.80;;;;;;5050163;28;20119;-67
2021/06/30 11:07:39;;;;;;;0.25;0.25;;;20.70;66.50;;;;;;5055677;28;20040;-67
2021/06/30 11:10:17;;;;;;;0.85;0.35;;;20.50;68.40;;;;;;5054607;28;20154;-65
2021/06/30 11:13:08;;;;;;;0.25;0.25;;;20.20;70.40;;;;;;5054826;28;20040;-70
2021/06/30 11:15:40;;;;;;;0.30;0.30;;;19.90;73.00;;;;;;5033826;28;20057;-68
2021/06/30 11:18:12;;;;;;;0.80;0.43;;;19.70;72.70;;;;;;5034655;28;20236;-67
2021/06/30 11:20:48;;;;;;;0.30;0.30;;;19.60;75.00;;;;;;5034924;28;20108;-67
2021/06/30 11:23:25;;;;;;;0.20;0.20;;;19.70;74.90;;;;;;5050314;28;20385;-70
2021/06/30 11:25:55;;;;;;;1.30;0.20;;;19.80;75.30;;;;;;5054250;28;20382;-69
2021/06/30 11:28:32;;;;;;;0.50;0.20;;;20.00;73.80;;;;;;5054682;28;20466;-69
2021/06/30 11:30:58;;;;;;;0.40;0.30;;;20.10;74.30;;;;;;5052875;28;20062;-69
2021/06/30 11:33:24;;;;;;;0.20;0.20;;;20.20;74.40;;;;;;5054355;28;20070;-69
2021/06/30 11:35:51;;;;;;;0.22;0.20;;;20.30;73.00;;;;;;5053428;28;20032;-69
2021/06/30 11:38:23;;;;;;;1.02;0.38;;;20.40;73.30;;;;;;5053944;28;20202;-69
2021/06/30 11:41:04;;;;;;;0.38;0.28;;;20.60;72.50;;;;;;5053504;28;20095;-68
2021/06/30 11:43:38;;;;;;;0.93;0.30;;;20.80;71.40;;;;;;5053787;28;20041;-69
2021/06/30 11:46:06;;;;;;;1.20;0.30;;;21.00;67.40;;;;;;5051604;28;20029;-69
2021/06/30 11:48:32;;;;;;;0.52;0.45;;;21.00;67.20;;;;;;5054658;28;20462;-69
2021/06/30 11:51:11;;;;;;;2.53;0.30;;;21.00;67.40;;;;;;5052848;28;20029;-68
2021/06/30 11:53:40;;;;;;;1.40;0.30;;;21.00;68.60;;;;;;5053576;28;20036;-68
2021/06/30 11:56:08;;;;;;;0.20;0.20;;;21.00;68.90;;;;;;5052869;28;20032;-68
2021/06/30 11:58:41;;;;;;;0.52;0.30;;;20.90;69.50;;;;;;5053175;28;20025;-68
2021/06/30 12:01:21;;;;;;;3.55;0.75;;;20.60;69.40;;;;;;5052707;28;20203;-68
2021/06/30 12:03:47;;;;;;;3.13;0.98;;;20.00;79.20;;;;;;5053533;28;20025;-68
2021/06/30 12:06:27;;;;;;;2.05;0.70;;;18.70;93.40;;;;;;5053062;28;20059;-68
2021/06/30 12:09:18;;;;;;;0.77;0.60;;;17.60;98.30;;;;;;5052574;28;20494;-67
2021/06/30 12:11:51;;;;;;;3.13;0.80;;;16.90;99.90;;;;;;5053711;28;20355;-68
2021/06/30 12:14:22;;;;;;;1.00;0.50;;;16.80;99.90;;;;;;5053384;28;20044;-68
2021/06/30 12:16:52;;;;;;;2.28;0.63;;;16.90;99.90;;;;;;5053499;28;20532;-68
2021/06/30 12:19:20;;;;;;;1.00;0.60;;;17.10;99.90;;;;;;5053138;28;20025;-68
2021/06/30 12:21:49;;;;;;;0.80;0.60;;;17.30;99.90;;;;;;5053047;28;20494;-68
2021/06/30 12:24:21;;;;;;;1.23;0.80;;;17.40;99.90;;;;;;5052532;28;20037;-68
2021/06/30 12:27:00;;;;;;;0.88;0.47;;;17.60;99.90;;;;;;5053216;28;20029;-68
2021/06/30 12:29:27;;;;;;;0.93;0.43;;;18.00;99.90;;;;;;5052613;28;20017;-69
2021/06/30 12:31:53;;;;;;;1.55;0.40;;;18.60;99.90;;;;;;5051786;28;20032;-69
2021/06/30 12:34:19;;;;;;;1.35;0.70;;;18.90;99.90;;;;;;5052497;28;20031;-69
2021/06/30 12:36:45;;;;;;;2.42;0.80;;;19.20;99.90;;;;;;5053240;28;20032;-68
2021/06/30 12:39:29;;;;;;;0.70;0.60;;;19.40;99.90;;;;;;5052084;28;20021;-67
2021/06/30 12:42:03;;;;;;;2.28;0.68;;;19.40;99.90;;;;;;5051617;28;20033;-67
2021/06/30 12:44:31;;;;;;;1.38;0.50;;;19.30;99.90;;;;;;5051866;28;20052;-67
2021/06/30 12:47:11;;;;;;;1.15;0.57;;;19.20;98.70;;;;;;5051731;28;20502;-67
2021/06/30 12:49:38;;;;;;;0.98;0.60;;;19.10;99.90;;;;;;5052331;28;20067;-67
2021/06/30 12:52:04;;;;;;;2.25;0.50;;;19.20;99.90;;;;;;5051526;28;20033;-67
2021/06/30 12:54:30;;;;;;;0.38;0.32;;;19.40;99.90;;;;;;5052490;28;20124;-67